Terminal Aerodrome Forecast
Issued by NWS

Home | Current Version | Previous Version | Text Only | Print | Product List | Glossary On
Versions: 1 2 3 4 5 6 7 8 9 10 11 12 13 14 15 16 17
000
FTUS41 KPBZ 210900 AAA
TAFMGW
TAF AMD
KMGW 210908Z 2109/2206 21004KT P6SM BKN040 BKN060
     FM211200 23010G15KT 4SM -SHRA BKN035
     FM212000 29010G15KT P6SM SCT035 BKN050 PROB30 2122/2124
      27015G25KT -TSRA BKN035CB
     FM220100 30010KT P6SM BKN050=

USA.gov is the U.S. government's official web portal to all federal, state and local government web resources and services.